createdAt,value
2018-08-13T00:00:49.377Z,45.41
2018-08-13T00:01:49.472Z,42.97
2018-08-13T00:02:49.564Z,47.12
2018-08-13T00:03:49.659Z,43.46
2018-08-13T00:04:49.755Z,62.74
2018-08-13T00:05:49.848Z,45.17
2018-08-13T00:06:49.943Z,44.43
2018-08-13T00:07:50.036Z,44.19
2018-08-13T00:08:50.135Z,44.19
2018-08-13T00:09:50.233Z,45.17
2018-08-13T00:10:50.324Z,46.39
2018-08-13T00:11:50.420Z,45.17
2018-08-13T00:12:50.515Z,44.43
2018-08-13T00:13:50.612Z,76.17
2018-08-13T00:14:50.705Z,43.95
2018-08-13T00:15:50.801Z,43.95
2018-08-13T00:16:50.895Z,80.32
2018-08-13T00:17:50.991Z,47.85
2018-08-13T00:18:51.087Z,51.03
2018-08-13T00:19:51.180Z,50.78
2018-08-13T00:20:51.281Z,45.41
2018-08-13T00:21:51.384Z,76.17
2018-08-13T00:22:51.481Z,49.32
2018-08-13T00:23:51.576Z,73.00
2018-08-13T00:24:51.669Z,72.02
2018-08-13T00:25:51.766Z,48.83
2018-08-13T00:26:51.864Z,81.05
2018-08-13T00:27:51.955Z,64.21
2018-08-13T00:28:52.054Z,73.49
2018-08-13T00:29:52.146Z,44.43
2018-08-13T00:30:52.241Z,44.92
2018-08-13T00:31:52.337Z,60.55
2018-08-13T00:32:52.434Z,47.61
2018-08-13T00:33:52.526Z,46.39
2018-08-13T00:34:52.622Z,60.55
2018-08-13T00:35:52.720Z,75.44
2018-08-13T00:36:52.812Z,46.14
2018-08-13T00:37:52.906Z,85.21
2018-08-13T00:38:53.007Z,68.12
2018-08-13T00:39:53.104Z,44.92
2018-08-13T00:40:53.197Z,44.68
2018-08-13T00:41:53.299Z,45.65
2018-08-13T00:42:53.386Z,46.39
2018-08-13T00:43:53.479Z,44.92
2018-08-13T00:44:53.574Z,45.65
2018-08-13T00:45:53.667Z,44.68
2018-08-13T00:46:53.760Z,45.90
2018-08-13T00:47:53.853Z,74.46
2018-08-13T00:48:53.950Z,49.56
2018-08-13T00:49:54.043Z,80.08
2018-08-13T00:50:54.141Z,46.88
2018-08-13T00:51:54.232Z,45.90
2018-08-13T00:52:54.327Z,49.56
2018-08-13T00:53:54.425Z,48.10
2018-08-13T00:54:54.515Z,57.13
2018-08-13T00:55:54.608Z,82.03
2018-08-13T00:56:54.700Z,47.61
2018-08-13T00:57:54.796Z,76.90
2018-08-13T00:58:54.887Z,71.04
2018-08-13T00:59:54.980Z,60.30
2018-08-13T01:00:55.076Z,76.66
2018-08-13T01:01:55.170Z,46.63
2018-08-13T01:02:55.261Z,46.14
2018-08-13T01:03:55.355Z,73.00
2018-08-13T01:04:55.453Z,63.96
2018-08-13T01:05:55.549Z,74.95
2018-08-13T01:06:55.640Z,45.65
2018-08-13T01:07:55.737Z,45.90
2018-08-13T01:08:55.829Z,74.22
2018-08-13T01:09:55.924Z,75.44
2018-08-13T01:10:56.017Z,48.34
2018-08-13T01:11:56.114Z,46.88
2018-08-13T01:12:56.204Z,48.10
2018-08-13T01:13:56.301Z,77.88
2018-08-13T01:14:56.393Z,53.96
2018-08-13T01:15:56.487Z,45.17
2018-08-13T01:16:56.581Z,72.75
2018-08-13T01:17:56.672Z,45.17
2018-08-13T01:18:56.765Z,46.88
2018-08-13T01:19:56.862Z,48.58
2018-08-13T01:20:56.954Z,45.41
2018-08-13T01:21:57.047Z,73.00
2018-08-13T01:22:57.144Z,54.93
2018-08-13T01:23:57.240Z,48.58
2018-08-13T01:24:57.331Z,49.07
2018-08-13T01:25:57.428Z,50.54
2018-08-13T01:26:57.525Z,46.88
2018-08-13T01:27:57.618Z,58.59
2018-08-13T01:28:57.712Z,80.57
2018-08-13T01:29:57.806Z,70.07
2018-08-13T01:30:57.900Z,45.41
2018-08-13T01:31:57.997Z,75.93
2018-08-13T01:32:58.095Z,74.95
2018-08-13T01:33:58.188Z,75.20
2018-08-13T01:34:58.280Z,51.03
2018-08-13T01:35:58.375Z,75.93
2018-08-13T01:36:58.468Z,71.53
2018-08-13T01:37:58.563Z,45.41
2018-08-13T01:38:58.656Z,46.39
2018-08-13T01:39:58.747Z,46.63
2018-08-13T01:40:58.839Z,46.39
2018-08-13T01:41:58.935Z,45.41
2018-08-13T01:42:59.029Z,45.41
2018-08-13T01:43:59.123Z,44.92
2018-08-13T01:44:59.218Z,83.25
2018-08-13T01:45:59.312Z,83.50
2018-08-13T01:46:59.406Z,54.93
2018-08-13T01:47:59.498Z,44.92
2018-08-13T01:48:59.592Z,74.95
2018-08-13T01:49:59.688Z,75.44
2018-08-13T01:50:59.782Z,45.17
2018-08-13T01:51:59.878Z,74.95
2018-08-13T01:52:59.972Z,49.80
2018-08-13T01:54:00.066Z,76.17
2018-08-13T01:55:00.160Z,55.42
2018-08-13T01:56:00.253Z,74.22
2018-08-13T01:57:00.346Z,84.72
2018-08-13T01:58:00.446Z,76.90
2018-08-13T01:59:00.534Z,47.85
2018-08-13T02:00:00.630Z,46.14
2018-08-13T02:01:00.722Z,46.14
2018-08-13T02:02:00.815Z,76.90
2018-08-13T02:03:00.909Z,72.75
2018-08-13T02:04:01.005Z,76.17
2018-08-13T02:05:01.099Z,46.63
2018-08-13T02:06:01.192Z,74.46
2018-08-13T02:07:01.285Z,46.39
2018-08-13T02:08:01.379Z,45.65
2018-08-13T02:09:01.472Z,63.23
2018-08-13T02:10:01.566Z,76.17
2018-08-13T02:11:01.659Z,69.34
2018-08-13T02:12:01.753Z,45.90
2018-08-13T02:13:01.849Z,74.95
2018-08-13T02:14:01.945Z,81.79
2018-08-13T02:15:02.036Z,83.01
2018-08-13T02:16:02.131Z,74.46
2018-08-13T02:17:02.225Z,77.15
2018-08-13T02:18:02.316Z,48.58
2018-08-13T02:19:02.412Z,51.76
2018-08-13T02:20:02.505Z,50.05
2018-08-13T02:21:02.600Z,50.05
2018-08-13T02:22:02.694Z,84.96
2018-08-13T02:23:02.790Z,86.43
2018-08-13T02:24:02.886Z,82.03
2018-08-13T02:25:02.981Z,75.20
2018-08-13T02:26:03.075Z,84.96
2018-08-13T02:27:03.167Z,55.66
2018-08-13T02:28:03.265Z,76.17
2018-08-13T02:29:03.355Z,76.66
2018-08-13T02:30:03.455Z,73.49
2018-08-13T02:31:03.544Z,49.80
2018-08-13T02:32:03.638Z,55.91
2018-08-13T02:33:03.720Z,48.10
2018-08-13T02:34:04.590Z,72.75
2018-08-13T02:35:03.897Z,74.71
2018-08-13T02:36:03.994Z,75.20
2018-08-13T02:37:04.092Z,78.13
2018-08-13T02:38:04.183Z,83.25
2018-08-13T02:39:04.270Z,78.13
2018-08-13T02:40:04.381Z,73.73
2018-08-13T02:41:04.447Z,74.95
2018-08-13T02:42:04.535Z,73.97
2018-08-13T02:43:04.634Z,77.39
2018-08-13T02:44:04.721Z,73.00
2018-08-13T02:45:04.811Z,76.42
2018-08-13T02:46:04.959Z,82.28
2018-08-13T02:47:04.997Z,81.54
2018-08-13T02:48:05.083Z,75.68
2018-08-13T02:49:05.174Z,83.01
2018-08-13T02:50:05.270Z,80.57
2018-08-13T02:51:05.360Z,78.86
2018-08-13T02:52:05.452Z,75.68
2018-08-13T02:53:05.540Z,78.86
2018-08-13T02:54:05.635Z,78.37
2018-08-13T02:55:05.719Z,77.88
2018-08-13T02:56:05.814Z,78.37
2018-08-13T02:57:05.902Z,78.86
2018-08-13T02:58:05.992Z,81.05
2018-08-13T02:59:06.083Z,83.25
2018-08-13T03:00:06.172Z,73.24
2018-08-13T03:01:06.267Z,74.95
2018-08-13T03:02:06.379Z,79.83
2018-08-13T03:03:06.466Z,83.01
2018-08-13T03:04:06.550Z,77.64
2018-08-13T03:05:06.639Z,80.08
2018-08-13T03:06:06.731Z,77.64
2018-08-13T03:07:06.823Z,77.88
2018-08-13T03:08:06.923Z,85.45
2018-08-13T03:09:07.026Z,79.35
2018-08-13T03:10:07.121Z,77.88
2018-08-13T03:11:07.208Z,75.68
2018-08-13T03:12:07.303Z,74.46
2018-08-13T03:13:07.399Z,77.15
2018-08-13T03:14:07.490Z,82.76
2018-08-13T03:15:07.584Z,76.42
2018-08-13T03:16:07.675Z,77.39
2018-08-13T03:17:07.766Z,76.42
2018-08-13T03:18:07.856Z,73.24
2018-08-13T03:19:07.948Z,84.72
2018-08-13T03:20:08.040Z,73.24
2018-08-13T03:21:08.133Z,74.46
2018-08-13T03:22:08.222Z,82.03
2018-08-13T03:23:08.322Z,74.46
2018-08-13T03:24:08.408Z,73.00
2018-08-13T03:25:08.500Z,76.90
2018-08-13T03:26:08.586Z,84.96
2018-08-13T03:27:08.683Z,79.35
2018-08-13T03:28:08.773Z,78.37
2018-08-13T03:29:08.862Z,79.35
2018-08-13T03:30:08.967Z,77.64
2018-08-13T03:31:09.054Z,81.05
2018-08-13T03:32:09.155Z,76.90
2018-08-13T03:33:09.241Z,86.67
2018-08-13T03:34:09.343Z,75.68
2018-08-13T03:35:09.438Z,79.10
2018-08-13T03:36:09.525Z,75.20
2018-08-13T03:37:09.621Z,80.08
2018-08-13T03:38:09.714Z,79.83
2018-08-13T03:39:09.813Z,85.21
2018-08-13T03:40:09.906Z,83.74
2018-08-13T03:41:09.997Z,77.15
2018-08-13T03:42:10.090Z,84.96
2018-08-13T03:43:10.183Z,78.13
2018-08-13T03:44:10.281Z,81.54
2018-08-13T03:45:10.369Z,76.17
2018-08-13T03:46:10.452Z,80.08
2018-08-13T03:47:10.547Z,81.54
2018-08-13T03:48:10.645Z,77.88
2018-08-13T03:49:10.735Z,78.37
2018-08-13T03:50:10.826Z,73.24
2018-08-13T03:51:10.910Z,77.39
2018-08-13T03:52:11.007Z,77.15
2018-08-13T03:53:11.124Z,77.64
2018-08-13T03:54:11.218Z,82.76
2018-08-13T03:55:11.313Z,88.13
2018-08-13T03:56:11.405Z,75.68
2018-08-13T03:57:11.502Z,83.25
2018-08-13T03:58:11.605Z,78.13
2018-08-13T03:59:11.695Z,77.15
2018-08-13T04:00:11.789Z,75.93
2018-08-13T04:01:11.880Z,78.86
2018-08-13T04:02:11.975Z,82.28
2018-08-13T04:03:12.079Z,76.90
2018-08-13T04:04:12.169Z,78.61
2018-08-13T04:05:12.259Z,83.50
2018-08-13T04:06:12.339Z,83.98
2018-08-13T04:07:12.443Z,85.94
2018-08-13T04:08:12.534Z,84.47
2018-08-13T04:09:12.626Z,78.37
2018-08-13T04:10:12.720Z,83.98
2018-08-13T04:11:12.831Z,80.08
2018-08-13T04:12:12.930Z,83.98
2018-08-13T04:13:13.017Z,79.83
2018-08-13T04:14:13.105Z,78.61
2018-08-13T04:15:13.200Z,76.90
2018-08-13T04:16:13.291Z,77.64
2018-08-13T04:17:13.383Z,79.59
2018-08-13T04:18:13.479Z,84.47
2018-08-13T04:19:13.574Z,78.13
2018-08-13T04:20:13.669Z,75.93
2018-08-13T04:21:13.762Z,84.23
2018-08-13T04:22:13.862Z,77.15
2018-08-13T04:23:13.950Z,78.13
2018-08-13T04:24:14.046Z,78.13
2018-08-13T04:25:14.140Z,77.64
2018-08-13T04:26:14.236Z,80.08
2018-08-13T04:27:14.327Z,82.28
2018-08-13T04:28:14.419Z,87.16
2018-08-13T04:29:14.514Z,79.59
2018-08-13T04:30:14.609Z,80.08
2018-08-13T04:31:14.699Z,78.37
2018-08-13T04:32:14.794Z,74.46
2018-08-13T04:33:14.890Z,78.13
2018-08-13T04:34:14.986Z,80.08
2018-08-13T04:35:15.081Z,86.67
2018-08-13T04:36:15.178Z,75.93
2018-08-13T04:37:15.272Z,78.13
2018-08-13T04:38:15.366Z,76.66
2018-08-13T04:39:15.466Z,85.21
2018-08-13T04:40:15.555Z,77.88
2018-08-13T04:41:15.646Z,81.79
2018-08-13T04:42:15.740Z,84.47
2018-08-13T04:43:15.834Z,78.61
2018-08-13T04:44:15.936Z,78.37
2018-08-13T04:45:16.024Z,81.05
2018-08-13T04:46:16.118Z,79.10
2018-08-13T04:47:16.217Z,79.59
2018-08-13T04:48:16.314Z,77.39
2018-08-13T04:49:16.405Z,76.66
2018-08-13T04:50:16.502Z,85.21
2018-08-13T04:51:16.595Z,83.50
2018-08-13T04:52:16.745Z,78.86
2018-08-13T04:53:16.786Z,77.64
2018-08-13T04:54:16.880Z,81.05
2018-08-13T04:55:16.975Z,78.61
2018-08-13T04:56:17.069Z,76.66
2018-08-13T04:57:17.169Z,84.96
2018-08-13T04:58:17.296Z,79.59
2018-08-13T04:59:17.379Z,77.88
2018-08-13T05:00:17.470Z,77.15
2018-08-13T05:01:17.565Z,83.98
2018-08-13T05:02:17.659Z,78.13
2018-08-13T05:03:17.757Z,75.93
2018-08-13T05:04:17.854Z,81.05
2018-08-13T05:05:17.949Z,78.86
2018-08-13T05:06:18.030Z,81.05
2018-08-13T05:07:18.173Z,84.96
2018-08-13T05:08:18.240Z,81.54
2018-08-13T05:09:18.335Z,80.81
2018-08-13T05:10:18.434Z,74.22
2018-08-13T05:11:18.529Z,79.35
2018-08-13T05:12:18.624Z,80.32
2018-08-13T05:13:18.720Z,82.03
2018-08-13T05:14:18.819Z,84.23
2018-08-13T05:15:18.901Z,82.76
2018-08-13T05:16:18.997Z,78.86
2018-08-13T05:17:19.091Z,83.74
2018-08-13T05:18:19.190Z,78.86
2018-08-13T05:19:19.294Z,78.86
2018-08-13T05:20:19.374Z,86.91
2018-08-13T05:21:19.553Z,78.13
2018-08-13T05:22:19.565Z,80.32
2018-08-13T05:23:19.660Z,81.30
2018-08-13T05:24:19.755Z,84.72
2018-08-13T05:25:19.849Z,80.08
2018-08-13T05:26:19.942Z,82.03
2018-08-13T05:27:20.036Z,83.01
2018-08-13T05:28:20.133Z,82.28
2018-08-13T05:29:20.228Z,85.45
2018-08-13T05:30:20.367Z,77.15
2018-08-13T05:31:20.416Z,83.98
2018-08-13T05:32:20.513Z,80.57
2018-08-13T05:33:20.607Z,78.61
2018-08-13T05:34:20.702Z,80.08
2018-08-13T05:35:20.796Z,84.47
2018-08-13T05:36:20.891Z,79.10
2018-08-13T05:37:20.986Z,83.98
2018-08-13T05:38:21.177Z,77.88
2018-08-13T05:39:21.175Z,82.28
2018-08-13T05:40:21.267Z,81.30
2018-08-13T05:41:21.362Z,80.32
2018-08-13T05:42:21.458Z,77.15
2018-08-13T05:43:21.555Z,81.30
2018-08-13T05:44:21.649Z,83.50
2018-08-13T05:45:21.787Z,82.28
2018-08-13T05:46:21.880Z,83.74
2018-08-13T05:47:21.973Z,79.83
2018-08-13T05:48:22.069Z,83.25
2018-08-13T05:49:22.167Z,78.37
2018-08-13T05:50:22.263Z,78.86
2018-08-13T05:51:22.360Z,77.88
2018-08-13T05:52:22.474Z,77.15
2018-08-13T05:53:22.571Z,79.10
2018-08-13T05:54:22.667Z,82.52
2018-08-13T05:55:22.762Z,78.86
2018-08-13T05:56:22.856Z,75.68
2018-08-13T05:57:22.952Z,84.23
2018-08-13T05:58:23.048Z,78.86
2018-08-13T05:59:23.147Z,78.61
2018-08-13T06:00:23.245Z,88.13
2018-08-13T06:01:23.339Z,78.13
2018-08-13T06:02:23.436Z,81.54
2018-08-13T06:03:23.532Z,83.50
2018-08-13T06:04:23.629Z,89.60
2018-08-13T06:05:23.724Z,82.28
2018-08-13T06:06:23.816Z,79.59
2018-08-13T06:07:23.911Z,78.13
2018-08-13T06:08:24.000Z,77.15
2018-08-13T06:09:24.097Z,77.88
2018-08-13T06:10:24.194Z,80.08
2018-08-13T06:11:24.357Z,79.59
2018-08-13T06:12:24.410Z,88.13
2018-08-13T06:13:24.504Z,76.42
2018-08-13T06:14:24.605Z,77.88
2018-08-13T06:15:24.699Z,79.10
2018-08-13T06:16:24.797Z,78.13
2018-08-13T06:17:24.894Z,82.76
2018-08-13T06:18:24.992Z,80.81
2018-08-13T06:19:25.090Z,78.37
2018-08-13T06:20:25.189Z,79.35
2018-08-13T06:21:25.283Z,80.81
2018-08-13T06:22:25.397Z,79.10
2018-08-13T06:23:25.479Z,84.47
2018-08-13T06:24:25.714Z,79.35
2018-08-13T06:25:25.677Z,79.35
2018-08-13T06:26:25.769Z,79.83
2018-08-13T06:27:25.862Z,77.64
2018-08-13T06:28:25.961Z,82.28
2018-08-13T06:29:26.060Z,76.90
2018-08-13T06:30:26.156Z,77.88
2018-08-13T06:31:26.256Z,77.15
2018-08-13T06:32:26.354Z,77.64
2018-08-13T06:33:26.467Z,76.90
2018-08-13T06:34:26.553Z,84.72
2018-08-13T06:35:26.653Z,79.59
2018-08-13T06:36:26.757Z,77.39
2018-08-13T06:37:26.857Z,83.50
2018-08-13T06:38:26.964Z,83.98
2018-08-13T06:39:27.056Z,83.74
2018-08-13T06:40:27.180Z,82.28
2018-08-13T06:41:27.270Z,77.15
2018-08-13T06:42:27.389Z,78.37
2018-08-13T06:43:27.483Z,76.42
2018-08-13T06:44:27.583Z,76.17
2018-08-13T06:45:27.680Z,76.17
2018-08-13T06:46:27.778Z,83.01
2018-08-13T06:47:27.890Z,80.08
2018-08-13T06:48:28.000Z,77.88
2018-08-13T06:49:28.093Z,79.83
2018-08-13T06:50:28.193Z,85.94
2018-08-13T06:51:28.294Z,80.57
2018-08-13T06:52:28.395Z,82.76
2018-08-13T06:53:28.494Z,83.01
2018-08-13T06:54:28.594Z,83.98
2018-08-13T06:55:28.709Z,80.32
2018-08-13T06:56:28.811Z,82.76
2018-08-13T06:57:28.902Z,77.64
2018-08-13T06:58:29.000Z,80.81
2018-08-13T06:59:29.104Z,77.39
2018-08-13T07:00:29.195Z,77.64
2018-08-13T07:01:29.291Z,81.54
2018-08-13T07:02:29.392Z,81.79
2018-08-13T07:03:29.492Z,77.15
2018-08-13T07:04:29.593Z,77.15
2018-08-13T07:05:29.694Z,84.96
2018-08-13T07:06:29.792Z,84.96
2018-08-13T07:07:29.913Z,76.90
2018-08-13T07:08:30.014Z,77.88
2018-08-13T07:09:30.113Z,82.28
2018-08-13T07:10:30.201Z,76.90
2018-08-13T07:11:30.299Z,81.54
2018-08-13T07:12:30.398Z,78.61
2018-08-13T07:13:30.498Z,77.64
2018-08-13T07:14:30.597Z,77.15
2018-08-13T07:15:30.698Z,76.66
2018-08-13T07:16:30.797Z,81.54
2018-08-13T07:17:30.895Z,81.79
2018-08-13T07:18:30.996Z,82.76
2018-08-13T07:19:31.083Z,78.86
2018-08-13T07:20:31.190Z,78.86
2018-08-13T07:21:31.296Z,86.67
2018-08-13T07:22:31.424Z,74.95
2018-08-13T07:23:31.488Z,86.91
2018-08-13T07:24:31.593Z,86.67
2018-08-13T07:25:31.691Z,77.15
2018-08-13T07:26:31.790Z,78.37
2018-08-13T07:27:31.892Z,74.71
2018-08-13T07:28:31.980Z,76.66
2018-08-13T07:29:32.074Z,81.54
2018-08-13T07:30:32.172Z,79.83
2018-08-13T07:31:32.272Z,83.50
2018-08-13T07:32:32.374Z,82.52
2018-08-13T07:33:32.477Z,82.52
2018-08-13T07:34:32.575Z,83.50
2018-08-13T07:35:32.672Z,77.15
2018-08-13T07:36:32.770Z,77.88
2018-08-13T07:37:32.869Z,78.37
2018-08-13T07:38:32.970Z,82.28
2018-08-13T07:39:33.119Z,84.47
2018-08-13T07:40:33.165Z,78.61
2018-08-13T07:41:33.274Z,78.13
2018-08-13T07:42:33.371Z,85.21
2018-08-13T07:43:33.468Z,80.81
2018-08-13T07:44:33.568Z,80.32
2018-08-13T07:45:33.727Z,78.86
2018-08-13T07:46:33.845Z,82.52
2018-08-13T07:47:33.892Z,79.83
2018-08-13T07:48:33.977Z,84.96
2018-08-13T07:49:34.069Z,80.81
2018-08-13T07:50:34.189Z,81.30
2018-08-13T07:51:34.339Z,80.81
2018-08-13T07:52:34.390Z,86.43
2018-08-13T07:53:34.490Z,82.03
2018-08-13T07:54:34.581Z,81.05
2018-08-13T07:55:34.689Z,82.52
2018-08-13T07:56:34.794Z,81.05
2018-08-13T07:57:34.898Z,85.45
2018-08-13T07:58:35.031Z,87.89
2018-08-13T07:59:35.113Z,84.96
2018-08-13T08:00:35.212Z,81.54
2018-08-13T08:01:35.296Z,83.01
2018-08-13T08:02:35.419Z,83.01
2018-08-13T08:03:35.525Z,81.30
2018-08-13T08:04:35.646Z,79.35
2018-08-13T08:05:35.736Z,79.35
2018-08-13T08:06:35.849Z,83.01
2018-08-13T08:07:35.944Z,89.11
2018-08-13T08:08:36.049Z,80.81
2018-08-13T08:09:36.145Z,85.69
2018-08-13T08:10:36.235Z,81.54
2018-08-13T08:11:36.323Z,84.23
2018-08-13T08:12:36.436Z,80.81
2018-08-13T08:13:36.542Z,88.62
2018-08-13T08:14:36.663Z,82.76
2018-08-13T08:15:36.785Z,79.10
2018-08-13T08:16:36.903Z,88.62
2018-08-13T08:17:37.007Z,79.59
2018-08-13T08:18:37.106Z,83.01
2018-08-13T08:19:37.213Z,78.86
2018-08-13T08:20:37.309Z,84.72
2018-08-13T08:21:37.402Z,79.35
2018-08-13T08:22:37.499Z,88.13
2018-08-13T08:23:37.592Z,83.25
2018-08-13T08:24:37.682Z,87.16
2018-08-13T08:25:37.782Z,81.30
2018-08-13T08:26:37.873Z,87.16
2018-08-13T08:27:37.975Z,80.32
2018-08-13T08:28:38.077Z,80.32
2018-08-13T08:29:38.173Z,84.72
2018-08-13T08:30:38.259Z,86.91
2018-08-13T08:31:38.404Z,77.39
2018-08-13T08:32:38.499Z,86.67
2018-08-13T08:33:38.605Z,78.86
2018-08-13T08:34:38.709Z,84.47
2018-08-13T08:35:38.794Z,82.52
2018-08-13T08:36:38.896Z,81.79
2018-08-13T08:37:39.008Z,84.96
2018-08-13T08:38:39.101Z,84.72
2018-08-13T08:39:39.196Z,80.81
2018-08-13T08:40:39.420Z,83.01
2018-08-13T08:41:39.401Z,77.88
2018-08-13T08:42:39.497Z,79.35
2018-08-13T08:43:39.600Z,82.03
2018-08-13T08:44:39.687Z,87.16
2018-08-13T08:45:39.807Z,83.25
2018-08-13T08:46:39.923Z,79.83
2018-08-13T08:47:40.011Z,81.05
2018-08-13T08:48:40.116Z,86.18
2018-08-13T08:49:40.208Z,87.16
2018-08-13T08:50:40.309Z,82.28
2018-08-13T08:51:40.416Z,82.28
2018-08-13T08:52:40.493Z,81.30
2018-08-13T08:53:40.689Z,85.94
2018-08-13T08:54:40.697Z,87.65
2018-08-13T08:55:40.783Z,84.96
2018-08-13T08:56:40.879Z,79.35
2018-08-13T08:57:40.979Z,81.05
2018-08-13T08:58:41.065Z,77.88
2018-08-13T08:59:41.161Z,80.08
2018-08-13T09:00:41.598Z,86.43
2018-08-13T09:01:41.333Z,85.21
2018-08-13T09:02:41.437Z,79.35
2018-08-13T09:03:41.537Z,85.21
2018-08-13T09:04:41.641Z,85.94
2018-08-13T09:05:41.741Z,83.25
2018-08-13T09:06:41.836Z,83.74
2018-08-13T09:07:41.933Z,86.43
2018-08-13T09:08:42.051Z,83.50
2018-08-13T09:09:42.150Z,77.15
2018-08-13T09:10:42.254Z,82.76
2018-08-13T09:11:42.357Z,83.98
2018-08-13T09:12:42.451Z,86.18
2018-08-13T09:13:42.534Z,79.35
2018-08-13T09:14:42.639Z,86.91
2018-08-13T09:15:42.733Z,80.57
2018-08-13T09:16:42.833Z,78.37
2018-08-13T09:17:42.928Z,78.86
2018-08-13T09:18:43.037Z,79.83
2018-08-13T09:19:43.147Z,80.32
2018-08-13T09:20:43.237Z,84.23
2018-08-13T09:21:43.339Z,82.28
2018-08-13T09:22:43.448Z,83.25
2018-08-13T09:23:43.552Z,80.32
2018-08-13T09:24:43.657Z,87.40
2018-08-13T09:25:43.753Z,80.08
2018-08-13T09:26:43.856Z,86.43
2018-08-13T09:27:43.954Z,84.23
2018-08-13T09:28:44.061Z,78.37
2018-08-13T09:29:44.159Z,79.83
2018-08-13T09:30:44.255Z,82.76
2018-08-13T09:31:44.351Z,84.96
2018-08-13T09:32:44.472Z,80.81
2018-08-13T09:33:44.577Z,83.50
2018-08-13T09:34:44.675Z,78.86
2018-08-13T09:35:44.775Z,79.83
2018-08-13T09:36:44.913Z,84.47
2018-08-13T09:37:44.969Z,80.32
2018-08-13T09:38:45.063Z,79.35
2018-08-13T09:39:45.218Z,89.60
2018-08-13T09:40:45.290Z,87.16
2018-08-13T09:41:45.384Z,81.54
2018-08-13T09:42:45.480Z,87.16
2018-08-13T09:43:45.581Z,81.05
2018-08-13T09:44:45.683Z,84.47
2018-08-13T09:45:45.771Z,87.89
2018-08-13T09:46:45.895Z,79.35
2018-08-13T09:47:45.989Z,82.03
2018-08-13T09:48:46.091Z,86.91
2018-08-13T09:49:46.181Z,87.40
2018-08-13T09:50:46.278Z,82.52
2018-08-13T09:51:46.378Z,83.98
2018-08-13T09:52:46.467Z,87.40
2018-08-13T09:53:46.599Z,81.54
2018-08-13T09:54:46.663Z,80.81
2018-08-13T09:55:46.765Z,80.81
2018-08-13T09:56:46.867Z,88.62
2018-08-13T09:57:46.963Z,80.32
2018-08-13T09:58:47.045Z,82.52
2018-08-13T09:59:47.149Z,80.32
2018-08-13T10:00:47.246Z,79.35
2018-08-13T10:01:47.344Z,80.08
2018-08-13T10:02:47.438Z,81.30
2018-08-13T10:03:47.535Z,87.89
2018-08-13T10:04:47.630Z,87.40
2018-08-13T10:05:47.729Z,85.21
2018-08-13T10:06:47.836Z,86.18
2018-08-13T10:07:47.920Z,80.08
2018-08-13T10:08:48.026Z,85.45
2018-08-13T10:09:48.125Z,80.08
2018-08-13T10:10:48.241Z,80.32
2018-08-13T10:11:48.319Z,86.91
2018-08-13T10:12:48.415Z,80.57
2018-08-13T10:13:48.516Z,85.21
2018-08-13T10:14:48.622Z,84.96
2018-08-13T10:15:48.721Z,79.83
2018-08-13T10:16:48.891Z,82.28
2018-08-13T10:17:48.922Z,84.47
2018-08-13T10:18:48.999Z,79.10
2018-08-13T10:19:49.099Z,78.61
2018-08-13T10:20:49.185Z,79.35
2018-08-13T10:21:49.281Z,87.40
2018-08-13T10:22:49.389Z,81.54
2018-08-13T10:23:49.484Z,86.91
2018-08-13T10:24:49.586Z,81.30
2018-08-13T10:25:49.681Z,80.08
2018-08-13T10:26:49.777Z,82.76
2018-08-13T10:27:49.874Z,80.32
2018-08-13T10:28:49.976Z,78.13
2018-08-13T10:29:50.147Z,78.86
2018-08-13T10:30:50.169Z,80.08
2018-08-13T10:31:50.272Z,85.94
2018-08-13T10:32:50.369Z,82.03
2018-08-13T10:33:50.479Z,79.83
2018-08-13T10:34:50.576Z,80.81
2018-08-13T10:35:50.674Z,79.35
2018-08-13T10:36:50.772Z,77.88
2018-08-13T10:37:50.872Z,79.59
2018-08-13T10:38:50.987Z,87.89
2018-08-13T10:39:51.065Z,82.28
2018-08-13T10:40:51.171Z,79.59
2018-08-13T10:41:51.265Z,81.30
2018-08-13T10:42:51.362Z,80.81
2018-08-13T10:43:51.459Z,81.54
2018-08-13T10:44:51.610Z,83.01
2018-08-13T10:45:51.657Z,77.64
2018-08-13T10:46:51.753Z,85.45
2018-08-13T10:47:51.841Z,79.35
2018-08-13T10:48:51.959Z,78.86
2018-08-13T10:49:52.054Z,80.08
2018-08-13T10:50:52.151Z,80.32
2018-08-13T10:51:52.253Z,87.16
2018-08-13T10:52:52.351Z,86.91
2018-08-13T10:53:52.450Z,80.57
2018-08-13T10:54:52.547Z,79.10
2018-08-13T10:55:52.648Z,85.45
2018-08-13T10:56:52.745Z,82.52
2018-08-13T10:57:52.841Z,78.13
2018-08-13T10:58:52.944Z,78.86
2018-08-13T10:59:53.045Z,80.57
2018-08-13T11:00:53.145Z,80.08
2018-08-13T11:01:53.246Z,91.80
2018-08-13T11:02:53.354Z,82.52
2018-08-13T11:03:53.445Z,87.16
2018-08-13T11:04:53.539Z,85.94
2018-08-13T11:05:53.636Z,86.43
2018-08-13T11:06:53.735Z,84.72
2018-08-13T11:07:53.875Z,84.47
2018-08-13T11:08:53.960Z,87.89
2018-08-13T11:09:54.082Z,79.59
2018-08-13T11:10:54.162Z,88.13
2018-08-13T11:11:54.265Z,86.67
2018-08-13T11:12:54.363Z,80.08
2018-08-13T11:13:54.467Z,86.43
2018-08-13T11:14:54.586Z,79.83
2018-08-13T11:15:54.681Z,79.10
2018-08-13T11:16:54.778Z,80.32
2018-08-13T11:17:54.881Z,90.58
2018-08-13T11:18:54.979Z,80.08
2018-08-13T11:19:55.080Z,78.37
2018-08-13T11:20:55.182Z,80.57
2018-08-13T11:21:55.290Z,80.57
2018-08-13T11:26:27.545Z,83.01
2018-08-13T11:27:27.642Z,88.38
2018-08-13T11:28:27.752Z,80.32
2018-08-13T11:29:27.838Z,78.13
2018-08-13T11:30:27.938Z,78.86
2018-08-13T11:31:28.038Z,81.05
2018-08-13T11:32:28.135Z,84.23
2018-08-13T11:33:28.225Z,80.81
2018-08-13T11:34:28.320Z,83.50
2018-08-13T11:35:28.419Z,84.96
2018-08-13T11:36:28.519Z,83.25
2018-08-13T11:37:28.615Z,87.65
2018-08-13T11:38:28.713Z,82.03
2018-08-13T11:39:28.810Z,77.64
2018-08-13T11:40:28.929Z,86.67
2018-08-13T11:41:29.010Z,85.94
2018-08-13T11:42:29.106Z,81.05
2018-08-13T11:43:29.205Z,86.67
2018-08-13T11:44:29.305Z,78.86
2018-08-13T11:45:29.401Z,78.13
2018-08-13T11:46:29.596Z,78.37
2018-08-13T11:47:29.618Z,78.61
2018-08-13T11:48:29.717Z,84.72
2018-08-13T11:49:29.814Z,85.45
2018-08-13T11:50:29.914Z,84.96
2018-08-13T11:51:30.012Z,85.69
2018-08-13T11:52:30.159Z,78.37
2018-08-13T11:53:30.209Z,75.44
2018-08-13T11:54:30.307Z,78.13
2018-08-13T11:55:30.403Z,77.88
2018-08-13T11:56:30.549Z,86.43
2018-08-13T11:57:30.603Z,77.88
2018-08-13T11:58:30.702Z,80.32
2018-08-13T11:59:30.805Z,79.35
2018-08-13T12:00:30.902Z,81.05
2018-08-13T12:01:30.997Z,84.96
2018-08-13T12:02:31.099Z,85.45
2018-08-13T12:03:31.196Z,84.96
2018-08-13T12:04:31.294Z,78.86
2018-08-13T12:05:31.392Z,80.08
2018-08-13T12:06:31.494Z,81.54
2018-08-13T12:07:31.588Z,80.32
2018-08-13T12:08:31.735Z,77.88
2018-08-13T12:09:31.785Z,77.15
2018-08-13T12:10:31.884Z,78.13
2018-08-13T12:11:31.980Z,85.21
2018-08-13T12:12:32.085Z,76.90
2018-08-13T12:13:32.184Z,77.15
2018-08-13T12:14:32.285Z,81.54
2018-08-13T12:15:32.381Z,75.44
2018-08-13T12:16:32.481Z,77.39
2018-08-13T12:17:32.585Z,80.81
2018-08-13T12:18:32.680Z,79.10
2018-08-13T12:19:32.826Z,90.58
2018-08-13T12:20:32.886Z,81.79
2018-08-13T12:21:32.995Z,77.39
2018-08-13T12:22:33.098Z,80.32
2018-08-13T12:23:33.199Z,78.86
2018-08-13T12:24:33.302Z,79.59
2018-08-13T12:25:33.398Z,77.64
2018-08-13T12:26:33.497Z,77.88
2018-08-13T12:27:33.599Z,78.61
2018-08-13T12:28:33.695Z,80.57
2018-08-13T12:29:33.800Z,77.88
2018-08-13T12:30:33.880Z,78.13
2018-08-13T12:31:34.582Z,81.54
2018-08-13T12:32:34.059Z,79.10
2018-08-13T12:33:34.144Z,85.45
2018-08-13T12:34:34.239Z,76.90
2018-08-13T12:35:34.335Z,84.96
2018-08-13T12:36:34.456Z,81.79
2018-08-13T12:37:34.551Z,76.42
2018-08-13T12:38:34.669Z,84.47
2018-08-13T12:39:34.761Z,75.20
2018-08-13T12:40:34.880Z,84.96
2018-08-13T12:41:34.975Z,83.98
2018-08-13T12:42:35.060Z,82.28
2018-08-13T12:43:35.163Z,77.39
2018-08-13T12:44:35.278Z,83.50
2018-08-13T12:45:35.379Z,75.20
2018-08-13T12:46:35.477Z,77.39
2018-08-13T12:47:35.600Z,76.90
2018-08-13T12:48:35.684Z,78.61
2018-08-13T12:49:35.801Z,85.21
2018-08-13T12:50:35.894Z,77.39
2018-08-13T12:51:35.998Z,81.05
2018-08-13T12:52:36.109Z,77.39
2018-08-13T12:53:36.207Z,83.98
2018-08-13T12:54:36.314Z,77.15
2018-08-13T12:55:36.423Z,83.74
2018-08-13T12:56:36.519Z,82.28
2018-08-13T12:57:36.622Z,77.64